createdAt,value
2023-04-10T00:00:26.018Z,1009.8
2023-04-10T00:01:42.151Z,1009.8
2023-04-10T00:02:58.299Z,1009.8
2023-04-10T00:04:14.436Z,1009.8
2023-04-10T00:05:30.566Z,1009.8
2023-04-10T00:06:46.702Z,1009.7
2023-04-10T00:08:02.891Z,1009.6
2023-04-10T00:09:18.134Z,1009.6
2023-04-10T00:10:34.311Z,1009.6
2023-04-10T00:11:49.536Z,1009.6
2023-04-10T00:13:05.665Z,1009.6
2023-04-10T00:14:21.804Z,1009.6
2023-04-10T00:15:37.946Z,1009.5
2023-04-10T00:16:54.071Z,1009.5
2023-04-10T00:18:10.201Z,1009.6
2023-04-10T00:19:26.355Z,1009.5
2023-04-10T00:20:42.486Z,1009.5
2023-04-10T00:23:14.748Z,1009.5
2023-04-10T00:24:30.880Z,1009.5
2023-04-10T00:25:47.000Z,1009.5
2023-04-10T00:27:03.167Z,1009.5
2023-04-10T00:28:19.296Z,1009.5
2023-04-10T00:29:35.432Z,1009.5
2023-04-10T00:30:51.557Z,1009.5
2023-04-10T00:32:07.708Z,1009.4
2023-04-10T00:33:23.846Z,1009.4
2023-04-10T00:34:39.969Z,1009.4
2023-04-10T00:37:12.241Z,1009.4
2023-04-10T00:38:28.394Z,1009.4
2023-04-10T00:39:44.521Z,1009.3
2023-04-10T00:41:00.655Z,1009.3
2023-04-10T00:42:16.791Z,1009.3
2023-04-10T00:43:32.981Z,1009.3
2023-04-10T00:44:48.220Z,1009.3
2023-04-10T00:46:03.431Z,1009.3
2023-04-10T00:47:18.573Z,1009.3
2023-04-10T00:48:34.707Z,1009.3
2023-04-10T00:49:50.848Z,1009.3
2023-04-10T00:51:06.978Z,1009.3
2023-04-10T00:52:23.113Z,1009.3
2023-04-10T00:53:39.248Z,1009.3
2023-04-10T00:54:55.396Z,1009.3
2023-04-10T00:56:11.517Z,1009.3
2023-04-10T00:57:27.656Z,1009.4
2023-04-10T00:58:43.780Z,1009.4
2023-04-10T00:59:59.944Z,1009.4
2023-04-10T01:01:16.061Z,1009.4
2023-04-10T01:02:32.197Z,1009.4
2023-04-10T01:03:48.334Z,1009.5
2023-04-10T01:05:04.471Z,1009.5
2023-04-10T01:06:20.608Z,1009.5
2023-04-10T01:07:36.756Z,1009.4
2023-04-10T01:08:52.888Z,1009.5
2023-04-10T01:10:09.022Z,1009.4
2023-04-10T01:11:25.149Z,1009.4
2023-04-10T01:12:41.292Z,1009.4
2023-04-10T01:13:57.432Z,1009.4
2023-04-10T01:15:13.563Z,1009.3
2023-04-10T01:16:29.688Z,1009.3
2023-04-10T01:17:45.832Z,1009.3
2023-04-10T01:19:01.969Z,1009.3
2023-04-10T01:20:18.118Z,1009.3
2023-04-10T01:21:34.246Z,1009.4
2023-04-10T01:22:50.379Z,1009.3
2023-04-10T01:24:06.516Z,1009.3
2023-04-10T01:25:22.645Z,1009.3
2023-04-10T01:26:38.784Z,1009.3
2023-04-10T01:27:54.927Z,1009.3
2023-04-10T01:29:11.059Z,1009.3
2023-04-10T01:30:27.194Z,1009.4
2023-04-10T01:31:43.343Z,1009.4
2023-04-10T01:32:59.477Z,1009.4
2023-04-10T01:34:15.662Z,1009.4
2023-04-10T01:35:30.919Z,1009.4
2023-04-10T01:36:46.158Z,1009.3
2023-04-10T01:38:01.434Z,1009.4
2023-04-10T01:39:16.670Z,1009.4
2023-04-10T01:40:32.858Z,1009.5
2023-04-10T01:41:49.059Z,1009.5
2023-04-10T01:43:04.261Z,1009.5
2023-04-10T01:44:20.416Z,1009.4
2023-04-10T01:45:36.540Z,1009.4
2023-04-10T01:46:52.667Z,1009.4
2023-04-10T01:48:08.799Z,1009.4
2023-04-10T01:49:24.940Z,1009.4
2023-04-10T01:50:41.084Z,1009.4
2023-04-10T01:51:57.215Z,1009.4
2023-04-10T01:53:13.355Z,1009.4
2023-04-10T01:54:29.493Z,1009.4
2023-04-10T01:55:45.611Z,1009.4
2023-04-10T01:57:01.758Z,1009.4
2023-04-10T01:58:17.904Z,1009.4
2023-04-10T01:59:34.038Z,1009.3
2023-04-10T02:00:50.159Z,1009.4
2023-04-10T02:02:06.300Z,1009.4
2023-04-10T02:03:22.439Z,1009.4
2023-04-10T02:04:38.570Z,1009.4
2023-04-10T02:05:54.707Z,1009.4
2023-04-10T02:07:10.846Z,1009.4
2023-04-10T02:08:26.983Z,1009.4
2023-04-10T02:09:43.134Z,1009.4
2023-04-10T02:10:59.267Z,1009.4
2023-04-10T02:12:15.392Z,1009.4
2023-04-10T02:13:31.523Z,1009.4
2023-04-10T02:14:47.725Z,1009.4
2023-04-10T02:16:02.977Z,1009.3
2023-04-10T02:17:18.187Z,1009.4
2023-04-10T02:18:33.329Z,1009.3
2023-04-10T02:19:49.470Z,1009.3
2023-04-10T02:21:05.593Z,1009.3
2023-04-10T02:22:21.722Z,1009.3
2023-04-10T02:23:37.874Z,1009.3
2023-04-10T02:24:54.000Z,1009.3
2023-04-10T02:26:10.149Z,1009.3
2023-04-10T02:27:26.276Z,1009.3
2023-04-10T02:28:42.406Z,1009.3
2023-04-10T02:29:58.537Z,1009.3
2023-04-10T02:31:14.702Z,1009.3
2023-04-10T02:32:30.827Z,1009.3
2023-04-10T02:33:46.962Z,1009.3
2023-04-10T02:35:03.087Z,1009.3
2023-04-10T02:36:19.221Z,1009.3
2023-04-10T02:37:35.363Z,1009.2
2023-04-10T02:38:51.510Z,1009.2
2023-04-10T02:40:07.633Z,1009.2
2023-04-10T02:41:23.775Z,1009.2
2023-04-10T02:42:39.906Z,1009.2
2023-04-10T02:43:56.059Z,1009.2
2023-04-10T02:45:12.196Z,1009.3
2023-04-10T02:46:28.324Z,1009.2
2023-04-10T02:47:44.459Z,1009.2
2023-04-10T02:49:00.579Z,1009.2
2023-04-10T02:50:16.738Z,1009.1
2023-04-10T02:51:32.856Z,1009.2
2023-04-10T02:52:48.994Z,1009.2
2023-04-10T02:54:05.129Z,1009.2
2023-04-10T02:55:21.273Z,1009.2
2023-04-10T02:56:37.410Z,1009.2
2023-04-10T02:57:53.547Z,1009.2
2023-04-10T02:59:09.670Z,1009.2
2023-04-10T03:00:25.820Z,1009.2
2023-04-10T03:01:41.939Z,1009.2
2023-04-10T03:02:58.098Z,1009.2
2023-04-10T03:04:14.217Z,1009.2
2023-04-10T03:05:30.415Z,1009.2
2023-04-10T03:06:45.647Z,1009.1
2023-04-10T03:08:00.872Z,1009.2
2023-04-10T03:09:16.987Z,1009.1
2023-04-10T03:10:33.138Z,1009.1
2023-04-10T03:11:49.270Z,1009.1
2023-04-10T03:13:05.409Z,1009.1
2023-04-10T03:14:21.548Z,1009.1
2023-04-10T03:15:37.672Z,1009.1
2023-04-10T03:16:53.814Z,1009.1
2023-04-10T03:18:09.937Z,1009.1
2023-04-10T03:19:26.088Z,1009.1
2023-04-10T03:20:42.213Z,1009.1
2023-04-10T03:21:58.362Z,1009.1
2023-04-10T03:23:14.492Z,1009.1
2023-04-10T03:24:30.620Z,1009
2023-04-10T03:25:46.771Z,1009
2023-04-10T03:27:02.901Z,1009
2023-04-10T03:28:19.037Z,1009
2023-04-10T03:29:35.172Z,1009
2023-04-10T03:30:51.306Z,1008.9
2023-04-10T03:32:07.464Z,1008.9
2023-04-10T03:33:23.588Z,1008.9
2023-04-10T03:34:39.705Z,1008.9
2023-04-10T03:35:55.855Z,1008.9
2023-04-10T03:37:11.987Z,1008.8
2023-04-10T03:38:28.125Z,1008.8
2023-04-10T03:39:44.317Z,1008.8
2023-04-10T03:40:59.554Z,1008.8
2023-04-10T03:42:14.771Z,1008.8
2023-04-10T03:43:30.904Z,1008.8
2023-04-10T03:44:47.040Z,1008.8
2023-04-10T03:46:03.175Z,1008.8
2023-04-10T03:47:19.298Z,1008.8
2023-04-10T03:48:35.438Z,1008.8
2023-04-10T03:49:51.571Z,1008.8
2023-04-10T03:51:07.721Z,1008.8
2023-04-10T03:52:23.851Z,1008.8
2023-04-10T03:53:39.983Z,1008.8
2023-04-10T03:54:56.122Z,1008.8
2023-04-10T03:56:12.253Z,1008.8
2023-04-10T03:57:28.384Z,1008.8
2023-04-10T03:58:44.521Z,1008.8
2023-04-10T04:00:00.667Z,1008.8
2023-04-10T04:01:16.800Z,1008.8
2023-04-10T04:02:32.942Z,1008.7
2023-04-10T04:03:49.065Z,1008.8
2023-04-10T04:05:05.201Z,1008.8
2023-04-10T04:06:21.328Z,1008.8
2023-04-10T04:07:37.477Z,1008.8
2023-04-10T04:08:53.617Z,1008.8
2023-04-10T04:10:09.746Z,1008.7
2023-04-10T04:11:25.882Z,1008.7
2023-04-10T04:12:42.020Z,1008.7
2023-04-10T04:13:58.224Z,1008.6
2023-04-10T04:15:13.466Z,1008.7
2023-04-10T04:16:29.660Z,1008.7
2023-04-10T04:17:44.859Z,1008.7
2023-04-10T04:19:00.989Z,1008.7
2023-04-10T04:20:17.133Z,1008.7
2023-04-10T04:21:33.282Z,1008.7
2023-04-10T04:22:49.401Z,1008.6
2023-04-10T04:24:05.546Z,1008.6
2023-04-10T04:25:21.680Z,1008.6
2023-04-10T04:26:37.799Z,1008.6
2023-04-10T04:27:53.934Z,1008.7
2023-04-10T04:29:10.062Z,1008.6
2023-04-10T04:30:26.211Z,1008.7
2023-04-10T04:31:42.345Z,1008.7
2023-04-10T04:32:58.493Z,1008.7
2023-04-10T04:35:30.760Z,1008.7
2023-04-10T04:36:46.897Z,1008.7
2023-04-10T04:38:03.028Z,1008.7
2023-04-10T04:39:19.162Z,1008.7
2023-04-10T04:40:35.294Z,1008.7
2023-04-10T04:41:51.434Z,1008.8
2023-04-10T04:43:07.583Z,1008.8
2023-04-10T04:44:23.714Z,1008.8
2023-04-10T04:45:39.855Z,1008.8
2023-04-10T04:46:55.975Z,1008.8
2023-04-10T04:48:12.113Z,1008.8
2023-04-10T04:49:28.318Z,1008.8
2023-04-10T04:50:43.556Z,1008.8
2023-04-10T04:51:58.773Z,1008.7
2023-04-10T04:53:14.899Z,1008.7
2023-04-10T04:54:31.043Z,1008.7
2023-04-10T04:55:47.170Z,1008.7
2023-04-10T04:57:03.306Z,1008.7
2023-04-10T04:58:19.440Z,1008.7
2023-04-10T04:59:35.579Z,1008.7
2023-04-10T05:00:51.728Z,1008.7
2023-04-10T05:02:07.853Z,1008.8
2023-04-10T05:03:23.992Z,1008.8
2023-04-10T05:04:40.125Z,1008.8
2023-04-10T05:05:56.276Z,1008.8
2023-04-10T05:07:12.407Z,1008.8
2023-04-10T05:08:28.539Z,1008.8
2023-04-10T05:09:44.664Z,1008.8
2023-04-10T05:11:00.796Z,1008.8
2023-04-10T05:12:16.940Z,1008.8
2023-04-10T05:13:33.088Z,1008.8
2023-04-10T05:14:49.204Z,1008.8
2023-04-10T05:16:05.347Z,1008.8
2023-04-10T05:17:21.485Z,1008.8
2023-04-10T05:18:37.634Z,1008.8
2023-04-10T05:19:53.768Z,1008.8
2023-04-10T05:21:09.892Z,1008.7
2023-04-10T05:22:26.023Z,1008.7
2023-04-10T05:23:42.226Z,1008.7
2023-04-10T05:24:57.460Z,1008.7
2023-04-10T05:26:12.662Z,1008.7
2023-04-10T05:27:28.800Z,1008.7
2023-04-10T05:28:44.937Z,1008.7
2023-04-10T05:30:01.077Z,1008.7
2023-04-10T05:31:17.218Z,1008.7
2023-04-10T05:32:33.346Z,1008.8
2023-04-10T05:33:49.474Z,1008.7
2023-04-10T05:35:05.617Z,1008.8
2023-04-10T05:36:21.760Z,1008.8
2023-04-10T05:37:37.882Z,1008.8
2023-04-10T05:38:54.013Z,1008.8
2023-04-10T05:40:10.164Z,1008.8
2023-04-10T05:41:26.302Z,1008.8
2023-04-10T05:42:42.432Z,1008.7
2023-04-10T05:43:58.567Z,1008.7
2023-04-10T05:45:14.707Z,1008.7
2023-04-10T05:46:30.824Z,1008.7
2023-04-10T05:47:46.990Z,1008.7
2023-04-10T05:49:03.123Z,1008.7
2023-04-10T05:50:19.249Z,1008.7
2023-04-10T05:51:35.377Z,1008.7
2023-04-10T05:52:51.521Z,1008.7
2023-04-10T05:54:07.669Z,1008.7
2023-04-10T05:55:23.802Z,1008.7
2023-04-10T05:56:39.919Z,1008.7
2023-04-10T05:57:56.125Z,1008.7
2023-04-10T05:59:11.360Z,1008.8
2023-04-10T06:00:27.558Z,1008.8
2023-04-10T06:01:42.764Z,1008.8
2023-04-10T06:02:58.892Z,1008.8
2023-04-10T06:04:15.031Z,1008.8
2023-04-10T06:05:31.160Z,1008.8
2023-04-10T06:06:47.312Z,1008.7
2023-04-10T06:08:03.445Z,1008.8
2023-04-10T06:09:19.579Z,1008.7
2023-04-10T06:10:35.727Z,1008.8
2023-04-10T06:11:51.859Z,1008.8
2023-04-10T06:13:07.977Z,1008.8
2023-04-10T06:14:24.109Z,1008.8
2023-04-10T06:15:40.252Z,1008.8
2023-04-10T06:16:56.399Z,1008.8
2023-04-10T06:18:12.524Z,1008.8
2023-04-10T06:19:28.657Z,1008.8
2023-04-10T06:20:44.800Z,1008.8
2023-04-10T06:22:00.920Z,1008.7
2023-04-10T06:23:17.067Z,1008.7
2023-04-10T06:24:33.214Z,1008.7
2023-04-10T06:25:49.349Z,1008.7
2023-04-10T06:27:05.473Z,1008.7
2023-04-10T06:28:21.617Z,1008.7
2023-04-10T06:29:37.756Z,1008.7
2023-04-10T06:30:53.889Z,1008.8
2023-04-10T06:32:10.030Z,1008.7
2023-04-10T06:33:26.222Z,1008.7
2023-04-10T06:34:41.476Z,1008.7
2023-04-10T06:35:56.683Z,1008.7
2023-04-10T06:38:27.978Z,1008.7
2023-04-10T06:39:44.113Z,1008.7
2023-04-10T06:41:00.244Z,1008.6
2023-04-10T06:42:16.384Z,1008.6
2023-04-10T06:43:32.519Z,1008.7
2023-04-10T06:44:48.663Z,1008.6
2023-04-10T06:46:04.789Z,1008.7
2023-04-10T06:47:20.922Z,1008.7
2023-04-10T06:48:37.067Z,1008.7
2023-04-10T06:49:53.190Z,1008.7
2023-04-10T06:51:09.336Z,1008.7
2023-04-10T06:52:25.465Z,1008.7
2023-04-10T06:53:41.603Z,1008.7
2023-04-10T06:54:57.749Z,1008.7
2023-04-10T06:56:13.868Z,1008.7
2023-04-10T06:57:30.030Z,1008.7
2023-04-10T06:58:46.144Z,1008.7
2023-04-10T07:00:02.284Z,1008.6
2023-04-10T07:01:18.411Z,1008.6
2023-04-10T07:02:34.562Z,1008.6
2023-04-10T07:03:50.708Z,1008.6
2023-04-10T07:05:06.842Z,1008.6
2023-04-10T07:06:22.972Z,1008.6
2023-04-10T07:07:39.109Z,1008.6
2023-04-10T07:08:55.233Z,1008.5
2023-04-10T07:10:11.384Z,1008.6
2023-04-10T07:11:27.527Z,1008.5
2023-04-10T07:12:43.642Z,1008.5
2023-04-10T07:13:59.785Z,1008.5
2023-04-10T07:15:15.924Z,1008.4
2023-04-10T07:16:32.072Z,1008.5
2023-04-10T07:17:48.194Z,1008.5
2023-04-10T07:19:04.334Z,1008.5
2023-04-10T07:20:20.474Z,1008.5
2023-04-10T07:21:36.603Z,1008.5
2023-04-10T07:22:52.748Z,1008.5
2023-04-10T07:24:08.946Z,1008.5
2023-04-10T07:25:24.169Z,1008.4
2023-04-10T07:26:39.389Z,1008.4
2023-04-10T07:27:55.524Z,1008.4
2023-04-10T07:29:11.661Z,1008.4
2023-04-10T07:30:27.778Z,1008.4
2023-04-10T07:31:43.915Z,1008.3
2023-04-10T07:33:00.067Z,1008.3
2023-04-10T07:34:16.209Z,1008.3
2023-04-10T07:35:32.339Z,1008.3
2023-04-10T07:36:48.474Z,1008.2
2023-04-10T07:38:04.594Z,1008.3
2023-04-10T07:39:20.747Z,1008.2
2023-04-10T07:40:36.881Z,1008.1
2023-04-10T07:41:53.005Z,1008.1
2023-04-10T07:43:09.141Z,1008.1
2023-04-10T07:44:25.283Z,1008.1
2023-04-10T07:45:41.438Z,1008.1
2023-04-10T07:46:57.552Z,1008.1
2023-04-10T07:48:13.697Z,1008
2023-04-10T07:49:29.825Z,1008
2023-04-10T07:50:45.954Z,1008
2023-04-10T07:52:02.109Z,1008
2023-04-10T07:53:18.242Z,1007.9
2023-04-10T07:54:34.369Z,1007.9
2023-04-10T07:55:50.509Z,1007.9
2023-04-10T07:57:06.643Z,1007.9
2023-04-10T07:58:22.849Z,1008
2023-04-10T07:59:38.084Z,1007.9
2023-04-10T08:00:53.291Z,1007.9
2023-04-10T08:02:09.443Z,1007.9
2023-04-10T08:03:25.583Z,1007.9
2023-04-10T08:04:41.704Z,1007.9
2023-04-10T08:05:57.846Z,1007.9
2023-04-10T08:07:13.974Z,1007.9
2023-04-10T08:08:30.134Z,1007.9
2023-04-10T08:09:46.253Z,1007.9
2023-04-10T08:11:02.383Z,1007.9
2023-04-10T08:12:18.517Z,1007.9
2023-04-10T08:13:34.659Z,1007.8
2023-04-10T08:14:50.814Z,1007.9
2023-04-10T08:16:06.950Z,1007.9
2023-04-10T08:17:23.072Z,1007.9
2023-04-10T08:18:39.210Z,1007.8
2023-04-10T08:19:55.343Z,1007.8
2023-04-10T08:21:11.490Z,1007.8
2023-04-10T08:22:27.628Z,1007.8
2023-04-10T08:23:43.765Z,1007.8
2023-04-10T08:24:59.899Z,1007.8
2023-04-10T08:26:16.025Z,1007.8
2023-04-10T08:27:32.164Z,1007.7
2023-04-10T08:28:48.303Z,1007.8
2023-04-10T08:30:04.433Z,1007.8
2023-04-10T08:31:20.580Z,1007.7
2023-04-10T08:32:36.757Z,1007.7
2023-04-10T08:33:52.001Z,1007.7
2023-04-10T08:35:08.204Z,1007.7
2023-04-10T08:36:23.408Z,1007.7
2023-04-10T08:37:39.546Z,1007.7
2023-04-10T08:38:55.683Z,1007.7
2023-04-10T08:40:11.816Z,1007.6
2023-04-10T08:41:27.941Z,1007.6
2023-04-10T08:42:44.077Z,1007.6
2023-04-10T08:44:00.230Z,1007.6
2023-04-10T08:45:16.366Z,1007.6
2023-04-10T08:46:32.494Z,1007.6
2023-04-10T08:47:48.634Z,1007.6
2023-04-10T08:49:04.754Z,1007.6
2023-04-10T08:50:20.911Z,1007.5
2023-04-10T08:51:37.046Z,1007.5
2023-04-10T08:52:53.173Z,1007.5
2023-04-10T08:54:09.312Z,1007.6
2023-04-10T08:55:25.442Z,1007.5
2023-04-10T08:56:41.601Z,1007.4
2023-04-10T08:57:57.726Z,1007.5
2023-04-10T08:59:13.865Z,1007.5
2023-04-10T09:00:29.986Z,1007.5
2023-04-10T09:01:46.138Z,1007.4
2023-04-10T09:03:02.281Z,1007.4
2023-04-10T09:04:18.417Z,1007.4
2023-04-10T09:05:34.549Z,1007.4
2023-04-10T09:06:50.676Z,1007.3
2023-04-10T09:08:06.869Z,1007.4
2023-04-10T09:09:22.111Z,1007.4
2023-04-10T09:10:37.321Z,1007.3
2023-04-10T09:11:53.451Z,1007.3
2023-04-10T09:13:09.602Z,1007.2
2023-04-10T09:14:25.744Z,1007.2
2023-04-10T09:15:41.862Z,1007.2
2023-04-10T09:16:58.011Z,1007.2
2023-04-10T09:18:14.141Z,1007.2
2023-04-10T09:19:30.296Z,1007.1
2023-04-10T09:20:46.425Z,1007.1
2023-04-10T09:22:02.564Z,1007.1
2023-04-10T09:23:18.682Z,1007.1
2023-04-10T09:24:34.823Z,1007
2023-04-10T09:25:50.970Z,1007
2023-04-10T09:27:07.109Z,1007
2023-04-10T09:28:23.238Z,1007
2023-04-10T09:29:39.370Z,1007
2023-04-10T09:30:55.503Z,1007
2023-04-10T09:32:11.653Z,1006.9
2023-04-10T09:33:27.791Z,1006.9
2023-04-10T09:34:43.921Z,1006.9
2023-04-10T09:36:00.053Z,1006.9
2023-04-10T09:37:16.199Z,1006.9
2023-04-10T09:38:32.346Z,1006.9
2023-04-10T09:39:48.479Z,1006.9
2023-04-10T09:41:04.602Z,1006.8
2023-04-10T09:42:20.809Z,1006.8
2023-04-10T09:43:36.055Z,1006.8
2023-04-10T09:44:51.257Z,1006.7
2023-04-10T09:46:06.414Z,1006.7
2023-04-10T09:47:22.000Z,1006.7
2023-04-10T09:48:38.686Z,1006.7
2023-04-10T09:49:54.822Z,1006.6
2023-04-10T09:51:10.954Z,1006.6
2023-04-10T09:52:27.092Z,1006.6
2023-04-10T09:53:43.243Z,1006.6
2023-04-10T09:54:59.381Z,1006.6
2023-04-10T09:56:15.502Z,1006.6
2023-04-10T09:57:31.637Z,1006.6
2023-04-10T09:58:47.773Z,1006.5
2023-04-10T10:00:03.921Z,1006.5
2023-04-10T10:01:20.057Z,1006.4
2023-04-10T10:02:36.208Z,1006.4
2023-04-10T10:03:52.327Z,1006.3
2023-04-10T10:05:08.467Z,1006.3
2023-04-10T10:06:24.618Z,1006.3
2023-04-10T10:07:40.754Z,1006.2
2023-04-10T10:08:56.887Z,1006.3
2023-04-10T10:10:13.022Z,1006.3
2023-04-10T10:11:29.155Z,1006.3
2023-04-10T10:12:45.303Z,1006.3
2023-04-10T10:14:01.449Z,1006.2
2023-04-10T10:15:17.571Z,1006.2
2023-04-10T10:16:33.704Z,1006.3
2023-04-10T10:17:49.834Z,1006.3
2023-04-10T10:19:05.994Z,1006.2
2023-04-10T10:20:22.127Z,1006.2
2023-04-10T10:21:38.257Z,1006.2
2023-04-10T10:22:54.389Z,1006.2
2023-04-10T10:24:10.532Z,1006.1
2023-04-10T10:25:26.671Z,1006.1
2023-04-10T10:26:42.812Z,1006.1
2023-04-10T10:27:58.957Z,1006.1
2023-04-10T10:29:15.083Z,1006.1
2023-04-10T10:30:31.229Z,1006.1
2023-04-10T10:31:47.374Z,1006
2023-04-10T10:33:03.561Z,1006
2023-04-10T10:34:18.798Z,1006
2023-04-10T10:35:34.004Z,1006
2023-04-10T10:36:50.152Z,1005.9
2023-04-10T10:38:06.284Z,1005.9
2023-04-10T10:39:22.426Z,1005.8
2023-04-10T10:40:38.563Z,1005.8
2023-04-10T10:41:54.710Z,1005.8
2023-04-10T10:43:10.846Z,1005.8
2023-04-10T10:44:26.978Z,1005.8
2023-04-10T10:45:43.109Z,1005.8
2023-04-10T10:46:59.238Z,1005.8
2023-04-10T10:48:15.401Z,1005.8
2023-04-10T10:49:31.533Z,1005.8
2023-04-10T10:50:47.658Z,1005.8
2023-04-10T10:52:03.792Z,1005.8
2023-04-10T10:53:19.931Z,1005.8
2023-04-10T10:54:36.090Z,1005.8
2023-04-10T10:55:52.225Z,1005.7
2023-04-10T10:57:08.351Z,1005.6
2023-04-10T10:58:24.487Z,1005.6
2023-04-10T10:59:40.623Z,1005.6
2023-04-10T11:00:56.764Z,1005.5
2023-04-10T11:02:12.910Z,1005.5
2023-04-10T11:03:29.034Z,1005.5
2023-04-10T11:04:45.183Z,1005.4
2023-04-10T11:06:01.316Z,1005.4
2023-04-10T11:07:17.513Z,1005.4
2023-04-10T11:08:32.779Z,1005.4
2023-04-10T11:09:48.979Z,1005.3
2023-04-10T11:11:04.171Z,1005.3
2023-04-10T11:12:20.310Z,1005.2
2023-04-10T11:13:36.459Z,1005.2
2023-04-10T11:14:52.587Z,1005.1
2023-04-10T11:16:08.712Z,1005.1
2023-04-10T11:17:24.860Z,1005
2023-04-10T11:18:40.996Z,1005.1
2023-04-10T11:19:57.136Z,1005.1
2023-04-10T11:21:13.268Z,1005
2023-04-10T11:22:29.408Z,1005
2023-04-10T11:23:45.564Z,1005
2023-04-10T11:25:01.685Z,1005
2023-04-10T11:26:17.819Z,1005
2023-04-10T11:27:33.964Z,1004.9
2023-04-10T11:28:50.095Z,1004.9
2023-04-10T11:30:06.248Z,1005
2023-04-10T11:31:22.369Z,1004.9
2023-04-10T11:32:38.505Z,1004.9
2023-04-10T11:33:54.650Z,1004.9
2023-04-10T11:35:10.780Z,1004.9
2023-04-10T11:36:26.934Z,1004.9
2023-04-10T11:37:43.061Z,1004.9
2023-04-10T11:38:59.200Z,1005
2023-04-10T11:40:15.335Z,1004.7
2023-04-10T11:41:31.472Z,1004.6
2023-04-10T11:42:47.669Z,1004.6
2023-04-10T11:44:02.922Z,1004.6
2023-04-10T11:45:18.135Z,1004.7
2023-04-10T11:46:34.262Z,1004.6
2023-04-10T11:47:50.397Z,1004.6
2023-04-10T11:49:06.531Z,1004.6
2023-04-10T11:50:22.666Z,1004.6
2023-04-10T11:51:38.802Z,1004.6
2023-04-10T11:52:54.956Z,1004.6
2023-04-10T11:54:11.080Z,1004.6
2023-04-10T11:55:27.216Z,1004.6
2023-04-10T11:56:43.359Z,1004.6
2023-04-10T11:57:59.482Z,1004.5
2023-04-10T11:59:15.632Z,1004.5
2023-04-10T12:00:31.783Z,1004.4
2023-04-10T12:01:47.915Z,1004.4
2023-04-10T12:03:04.045Z,1004.4
2023-04-10T12:04:20.182Z,1004.4
2023-04-10T12:05:36.000Z,1004.4
2023-04-10T12:06:52.465Z,1004.4
2023-04-10T12:08:08.598Z,1004.4
2023-04-10T12:09:24.724Z,1004.3
2023-04-10T12:10:40.856Z,1004.3
2023-04-10T12:11:57.005Z,1004.3
2023-04-10T12:13:13.145Z,1004.2
2023-04-10T12:14:29.272Z,1004.3
2023-04-10T12:15:45.417Z,1004.2
2023-04-10T12:17:01.596Z,1004.2
2023-04-10T12:18:16.878Z,1004.1
2023-04-10T12:19:32.102Z,1004.2
2023-04-10T12:20:47.315Z,1004.1
2023-04-10T12:22:03.451Z,1004.1
2023-04-10T12:23:19.585Z,1004.1
2023-04-10T12:24:35.726Z,1004
2023-04-10T12:25:51.852Z,1004
2023-04-10T12:27:07.997Z,1003.9
2023-04-10T12:28:24.139Z,1004
2023-04-10T12:29:40.267Z,1004
2023-04-10T12:30:56.395Z,1003.9
2023-04-10T12:32:12.529Z,1003.9
2023-04-10T12:33:28.686Z,1003.9
2023-04-10T12:34:44.815Z,1003.9
2023-04-10T12:36:00.957Z,1003.9
2023-04-10T12:37:17.091Z,1003.9
2023-04-10T12:38:33.227Z,1003.9
2023-04-10T12:39:49.359Z,1003.8
2023-04-10T12:41:05.492Z,1003.8
2023-04-10T12:42:21.636Z,1003.8
2023-04-10T12:43:37.773Z,1003.7
2023-04-10T12:44:53.895Z,1003.7
2023-04-10T12:46:10.053Z,1003.7
2023-04-10T12:47:26.188Z,1003.7
2023-04-10T12:48:42.312Z,1003.7
2023-04-10T12:49:58.453Z,1003.6
2023-04-10T12:51:14.583Z,1003.6
2023-04-10T12:52:30.783Z,1003.6
2023-04-10T12:53:46.018Z,1003.6
2023-04-10T12:55:01.237Z,1003.6
2023-04-10T12:56:17.373Z,1003.5
2023-04-10T12:57:33.519Z,1003.5
2023-04-10T12:58:49.638Z,1003.5
2023-04-10T13:00:05.770Z,1003.5
2023-04-10T13:01:21.919Z,1003.4
2023-04-10T13:02:38.063Z,1003.4
2023-04-10T13:03:54.184Z,1003.3
2023-04-10T13:05:10.322Z,1003.3
2023-04-10T13:06:26.450Z,1003.3
2023-04-10T13:07:42.586Z,1003.2
2023-04-10T13:08:58.735Z,1003.3
2023-04-10T13:10:14.870Z,1003.3
2023-04-10T13:11:31.014Z,1003.2
2023-04-10T13:12:47.130Z,1003.2
2023-04-10T13:14:03.267Z,1003.1
2023-04-10T13:15:19.417Z,1003.1
2023-04-10T13:16:35.550Z,1003.2
2023-04-10T13:17:51.690Z,1003.2
2023-04-10T13:19:07.819Z,1003.1
2023-04-10T13:20:23.950Z,1003.1
2023-04-10T13:21:40.094Z,1003.1
2023-04-10T13:22:56.243Z,1003.1
2023-04-10T13:24:12.360Z,1003.1
2023-04-10T13:25:28.507Z,1003.1
2023-04-10T13:26:44.695Z,1003.1
2023-04-10T13:27:59.931Z,1003.1
2023-04-10T13:29:15.133Z,1003
2023-04-10T13:30:31.268Z,1003
2023-04-10T13:31:47.429Z,1002.9
2023-04-10T13:33:03.558Z,1002.9
2023-04-10T13:34:19.681Z,1002.9
2023-04-10T13:35:35.828Z,1002.9
2023-04-10T13:36:51.956Z,1002.8
2023-04-10T13:38:08.107Z,1002.8
2023-04-10T13:39:24.242Z,1002.8
2023-04-10T13:40:40.375Z,1002.8
2023-04-10T13:41:56.503Z,1002.8
2023-04-10T13:43:12.648Z,1002.7
2023-04-10T13:44:28.792Z,1002.7
2023-04-10T13:45:44.917Z,1002.7
2023-04-10T13:47:01.055Z,1002.7
2023-04-10T13:48:17.178Z,1002.6
2023-04-10T13:49:33.322Z,1002.6
2023-04-10T13:50:49.469Z,1002.6
2023-04-10T13:52:05.607Z,1002.5
2023-04-10T13:53:21.725Z,1002.5
2023-04-10T13:54:37.874Z,1002.5
2023-04-10T13:55:54.003Z,1002.5
2023-04-10T13:57:10.140Z,1002.5
2023-04-10T13:58:26.273Z,1002.5
2023-04-10T13:59:42.412Z,1002.5
2023-04-10T14:00:58.602Z,1002.4
2023-04-10T14:02:13.857Z,1002.5
2023-04-10T14:03:29.051Z,1002.4
2023-04-10T14:04:44.209Z,1002.4
2023-04-10T14:06:00.354Z,1002.4
2023-04-10T14:07:16.495Z,1002.4
2023-04-10T14:08:32.622Z,1002.3
2023-04-10T14:09:48.764Z,1002.3
2023-04-10T14:11:04.893Z,1002.3
2023-04-10T14:12:21.043Z,1002.2
2023-04-10T14:13:37.165Z,1002.2
2023-04-10T14:14:53.294Z,1002.2
2023-04-10T14:16:09.444Z,1002.2
2023-04-10T14:17:25.576Z,1002.2
2023-04-10T14:18:41.725Z,1002.2
2023-04-10T14:19:57.845Z,1002.2
2023-04-10T14:21:13.975Z,1002.2
2023-04-10T14:22:30.123Z,1002.2
2023-04-10T14:23:46.240Z,1002.2
2023-04-10T14:25:02.399Z,1002.2
2023-04-10T14:26:18.525Z,1002.1
2023-04-10T14:27:34.670Z,1002.1
2023-04-10T14:28:50.787Z,1002
2023-04-10T14:30:06.936Z,1002
2023-04-10T14:31:23.070Z,1002
2023-04-10T14:32:39.215Z,1002
2023-04-10T14:33:55.336Z,1002
2023-04-10T14:35:11.468Z,1002
2023-04-10T14:36:27.615Z,1001.9
2023-04-10T14:37:43.765Z,1001.9
2023-04-10T14:38:59.892Z,1001.9
2023-04-10T14:40:16.030Z,1001.9
2023-04-10T14:41:32.159Z,1001.9
2023-04-10T14:42:48.281Z,1001.8
2023-04-10T14:44:04.446Z,1001.7
2023-04-10T14:45:20.575Z,1001.7
2023-04-10T14:46:36.698Z,1001.8
2023-04-10T14:47:52.837Z,1001.7
2023-04-10T14:49:08.969Z,1001.7
2023-04-10T14:50:25.119Z,1001.7
2023-04-10T14:51:41.315Z,1001.7
2023-04-10T14:52:56.554Z,1001.7
2023-04-10T14:54:11.746Z,1001.7
2023-04-10T14:55:27.886Z,1001.7
2023-04-10T14:56:44.027Z,1001.6
2023-04-10T14:58:00.166Z,1001.6
2023-04-10T14:59:16.299Z,1001.6
2023-04-10T15:00:32.440Z,1001.6
2023-04-10T15:01:48.568Z,1001.5
2023-04-10T15:03:04.714Z,1001.5
2023-04-10T15:04:20.831Z,1001.4
2023-04-10T15:05:36.968Z,1001.4
2023-04-10T15:06:53.123Z,1001.3
2023-04-10T15:08:09.256Z,1001.3
2023-04-10T15:09:25.381Z,1001.3
2023-04-10T15:10:41.512Z,1001.3
2023-04-10T15:11:57.646Z,1001.3
2023-04-10T15:13:13.805Z,1001.3
2023-04-10T15:14:29.944Z,1001.2
2023-04-10T15:15:46.068Z,1001.2
2023-04-10T15:17:02.203Z,1001.1
2023-04-10T15:18:18.340Z,1001.1
2023-04-10T15:19:34.478Z,1001
2023-04-10T15:20:50.615Z,1001
2023-04-10T15:22:06.757Z,1001
2023-04-10T15:23:22.881Z,1001
2023-04-10T15:24:39.024Z,1001
2023-04-10T15:25:55.228Z,1000.9
2023-04-10T15:27:10.477Z,1000.9
2023-04-10T15:28:26.674Z,1000.9
2023-04-10T15:29:41.879Z,1000.8
2023-04-10T15:30:58.026Z,1000.8
2023-04-10T15:32:14.156Z,1000.8
2023-04-10T15:33:30.282Z,1000.8
2023-04-10T15:34:46.427Z,1000.8
2023-04-10T15:36:02.574Z,1000.7
2023-04-10T15:37:18.703Z,1000.8
2023-04-10T15:38:34.834Z,1000.7
2023-04-10T15:39:50.963Z,1000.7
2023-04-10T15:41:07.098Z,1000.7
2023-04-10T15:42:23.247Z,1000.7
2023-04-10T15:43:39.391Z,1000.7
2023-04-10T15:44:55.514Z,1000.7
2023-04-10T15:46:11.645Z,1000.7
2023-04-10T15:47:27.789Z,1000.7
2023-04-10T15:48:43.929Z,1000.6
2023-04-10T15:50:00.072Z,1000.6
2023-04-10T15:51:16.205Z,1000.6
2023-04-10T15:52:32.332Z,1000.5
2023-04-10T15:53:48.466Z,1000.4
2023-04-10T15:55:04.604Z,1000.4
2023-04-10T15:56:20.756Z,1000.4
2023-04-10T15:57:36.881Z,1000.3